createdAt,value
2023-04-27T00:00:45.729Z,100559.72
2023-04-27T00:03:14.236Z,100560.72
2023-04-27T00:05:47.746Z,100604.53
2023-04-27T00:08:18.287Z,100554.94
2023-04-27T00:10:49.062Z,100458.84
2023-04-27T00:13:17.229Z,100442.50
2023-04-27T00:15:45.764Z,100482.94
2023-04-27T00:18:14.061Z,100613.06
2023-04-27T00:20:45.712Z,100542.94
2023-04-27T00:23:19.028Z,100526.53
2023-04-27T00:25:53.112Z,100438.84
2023-04-27T00:28:25.292Z,100449.34
2023-04-27T00:31:04.363Z,100613.13
2023-04-27T00:33:32.701Z,100458.25
2023-04-27T00:36:17.644Z,100690.78
2023-04-27T00:38:52.764Z,100489.00
2023-04-27T00:41:30.414Z,100494.97
2023-04-27T00:44:08.318Z,100530.38
2023-04-27T00:46:37.329Z,100531.28
2023-04-27T00:49:05.435Z,100535.31
2023-04-27T00:51:36.687Z,100592.41
2023-04-27T00:54:06.388Z,100448.44
2023-04-27T00:56:39.303Z,100563.28
2023-04-27T00:59:14.517Z,100531.53
2023-04-27T01:01:58.454Z,100562.16
2023-04-27T01:04:35.209Z,100413.19
2023-04-27T01:07:18.650Z,100385.28
2023-04-27T01:09:58.612Z,100385.41
2023-04-27T01:12:39.870Z,100429.75
2023-04-27T01:15:33.982Z,100384.72
2023-04-27T01:18:14.029Z,100374.19
2023-04-27T01:20:55.116Z,100496.34
2023-04-27T01:23:25.917Z,100657.78
2023-04-27T01:26:07.228Z,100460.50
2023-04-27T01:28:39.574Z,100647.78
2023-04-27T01:31:10.666Z,100396.00
2023-04-27T01:33:50.589Z,100653.13
2023-04-27T01:36:28.287Z,100415.53
2023-04-27T01:39:06.041Z,100560.44
2023-04-27T01:41:45.966Z,100405.03
2023-04-27T01:44:17.286Z,100386.53
2023-04-27T01:46:45.614Z,100383.91
2023-04-27T01:49:14.437Z,100374.81
2023-04-27T01:51:43.215Z,100425.41
2023-04-27T01:54:12.627Z,100645.88
2023-04-27T01:56:46.478Z,100532.53
2023-04-27T01:59:28.836Z,100402.88
2023-04-27T02:01:57.424Z,100476.75
2023-04-27T02:04:31.553Z,100383.38
2023-04-27T02:07:00.865Z,100455.50
2023-04-27T02:09:30.205Z,100564.09
2023-04-27T02:11:58.624Z,100486.03
2023-04-27T02:14:27.305Z,100444.91
2023-04-27T02:16:55.156Z,100410.59
2023-04-27T02:19:25.390Z,100623.19
2023-04-27T02:21:53.510Z,100626.94
2023-04-27T02:24:21.735Z,100522.63
2023-04-27T02:26:50.006Z,100371.41
2023-04-27T02:29:20.617Z,100373.31
2023-04-27T02:31:49.555Z,100436.88
2023-04-27T02:34:17.702Z,100631.28
2023-04-27T02:36:48.360Z,100443.41
2023-04-27T02:39:16.679Z,100363.75
2023-04-27T02:44:12.848Z,100490.69
2023-04-27T02:46:43.109Z,100446.22
2023-04-27T02:49:11.725Z,100521.03
2023-04-27T02:51:43.248Z,100453.59
2023-04-27T02:54:11.852Z,100448.56
2023-04-27T02:56:43.305Z,100617.03
2023-04-27T02:59:19.086Z,100459.97
2023-04-27T03:01:49.919Z,100608.81
2023-04-27T03:04:47.205Z,100608.81
2023-04-27T03:07:15.509Z,100320.41
2023-04-27T03:09:47.102Z,100466.03
2023-04-27T03:12:25.391Z,100358.09
2023-04-27T03:15:00.232Z,100516.59
2023-04-27T03:17:28.716Z,100455.44
2023-04-27T03:20:07.102Z,100466.13
2023-04-27T03:22:40.139Z,100317.47
2023-04-27T03:25:15.089Z,100581.31
2023-04-27T03:30:41.017Z,100457.53
2023-04-27T03:33:10.377Z,100484.22
2023-04-27T03:36:02.212Z,100327.03
2023-04-27T03:38:44.437Z,100344.44
2023-04-27T03:41:22.795Z,100604.56
2023-04-27T03:44:05.593Z,100355.06
2023-04-27T03:46:49.502Z,100605.59
2023-04-27T03:49:25.703Z,100563.78
2023-04-27T03:52:01.979Z,100419.56
2023-04-27T03:54:43.127Z,100303.22
2023-04-27T03:57:18.488Z,100434.69
2023-04-27T03:59:52.356Z,100338.50
2023-04-27T04:02:24.341Z,100375.06
2023-04-27T04:04:55.028Z,100312.22
2023-04-27T04:07:23.548Z,100422.56
2023-04-27T04:09:53.991Z,100421.47
2023-04-27T04:12:32.311Z,100319.63
2023-04-27T04:15:08.280Z,100297.47
2023-04-27T04:17:47.809Z,100305.25
2023-04-27T04:20:21.989Z,100338.69
2023-04-27T04:23:01.368Z,100446.44
2023-04-27T04:25:34.707Z,100336.66
2023-04-27T04:28:11.601Z,100578.28
2023-04-27T04:30:43.678Z,100324.53
2023-04-27T04:33:33.643Z,100568.56
2023-04-27T04:36:13.494Z,100471.69
2023-04-27T04:38:52.786Z,100397.28
2023-04-27T04:41:26.268Z,100310.09
2023-04-27T04:44:07.500Z,100329.78
2023-04-27T04:46:46.845Z,100493.94
2023-04-27T04:50:04.886Z,100417.41
2023-04-27T04:52:39.062Z,100574.34
2023-04-27T04:55:21.093Z,100416.88
2023-04-27T04:58:05.665Z,100360.81
2023-04-27T05:00:37.191Z,100414.44
2023-04-27T05:03:14.413Z,100428.41
2023-04-27T05:08:40.930Z,100306.78
2023-04-27T05:11:11.881Z,100429.22
2023-04-27T05:13:54.345Z,100355.25
2023-04-27T05:16:24.255Z,100358.19
2023-04-27T05:19:01.686Z,100432.28
2023-04-27T05:21:29.640Z,100267.63
2023-04-27T05:24:01.081Z,100431.97
2023-04-27T05:26:29.246Z,100413.19
2023-04-27T05:28:57.180Z,100560.94
2023-04-27T05:31:27.075Z,100403.38
2023-04-27T05:33:55.367Z,100525.56
2023-04-27T05:36:26.009Z,100480.69
2023-04-27T05:38:54.016Z,100404.09
2023-04-27T05:41:22.082Z,100570.97
2023-04-27T05:43:50.045Z,100552.19
2023-04-27T05:46:19.619Z,100495.66
2023-04-27T05:48:47.586Z,100434.19
2023-04-27T05:51:15.620Z,100551.28
2023-04-27T05:53:43.338Z,100596.38
2023-04-27T05:56:12.080Z,100598.28
2023-04-27T05:58:40.032Z,100544.28
2023-04-27T06:01:08.425Z,100579.66
2023-04-27T06:03:36.528Z,100547.03
2023-04-27T06:06:06.266Z,100587.75
2023-04-27T06:08:37.482Z,100610.22
2023-04-27T06:11:07.144Z,100516.97
2023-04-27T06:13:34.918Z,100575.22
2023-04-27T06:16:02.744Z,100574.91
2023-04-27T06:18:31.753Z,100621.84
2023-04-27T06:21:01.785Z,100621.03
2023-04-27T06:23:29.819Z,100577.34
2023-04-27T06:25:59.055Z,100559.06
2023-04-27T06:28:26.823Z,100590.41
2023-04-27T06:30:55.158Z,100622.66
2023-04-27T06:33:22.793Z,100611.31
2023-04-27T06:35:51.047Z,100525.00
2023-04-27T06:38:18.681Z,100592.28
2023-04-27T06:40:51.399Z,100603.84
2023-04-27T06:43:19.496Z,100614.03
2023-04-27T06:45:47.299Z,100629.22
2023-04-27T06:48:15.248Z,100596.84
2023-04-27T06:50:43.807Z,100591.88
2023-04-27T06:53:11.845Z,100607.25
2023-04-27T06:55:41.668Z,100594.22
2023-04-27T06:58:11.127Z,100583.50
2023-04-27T07:00:39.260Z,100630.53
2023-04-27T07:03:07.244Z,100586.97
2023-04-27T07:05:35.208Z,100613.16
2023-04-27T07:08:07.004Z,100583.44
2023-04-27T07:10:36.512Z,100632.56
2023-04-27T07:13:04.855Z,100606.19
2023-04-27T07:15:34.112Z,100587.78
2023-04-27T07:18:01.814Z,100558.66
2023-04-27T07:20:29.706Z,100608.81
2023-04-27T07:22:57.429Z,100566.53
2023-04-27T07:25:25.930Z,100602.97
2023-04-27T07:27:53.705Z,100644.84
2023-04-27T07:30:21.961Z,100612.28
2023-04-27T07:32:55.041Z,100650.59
2023-04-27T07:35:22.853Z,100641.38
2023-04-27T07:37:52.168Z,100615.91
2023-04-27T07:40:20.051Z,100625.69
2023-04-27T07:42:48.232Z,100610.53
2023-04-27T07:45:18.150Z,100632.38
2023-04-27T07:47:54.463Z,100634.47
2023-04-27T07:50:25.014Z,100611.94
2023-04-27T07:52:54.963Z,100634.38
2023-04-27T07:55:23.678Z,100579.88
2023-04-27T07:57:53.807Z,100618.88
2023-04-27T08:00:22.437Z,100573.16
2023-04-27T08:02:51.072Z,100628.69
2023-04-27T08:05:19.675Z,100636.09
2023-04-27T08:07:47.853Z,100619.28
2023-04-27T08:10:16.258Z,100641.38
2023-04-27T08:12:43.997Z,100594.44
2023-04-27T08:15:12.108Z,100601.41
2023-04-27T08:17:43.966Z,100564.31
2023-04-27T08:20:12.078Z,100643.28
2023-04-27T08:22:40.814Z,100633.34
2023-04-27T08:25:10.002Z,100625.78
2023-04-27T08:27:39.142Z,100644.63
2023-04-27T08:30:07.855Z,100637.00
2023-04-27T08:32:35.775Z,100649.94
2023-04-27T08:35:04.611Z,100625.97
2023-04-27T08:37:32.584Z,100612.59
2023-04-27T08:40:00.442Z,100612.59
2023-04-27T08:42:28.380Z,100625.38
2023-04-27T08:44:56.923Z,100625.38
2023-04-27T08:47:35.090Z,100623.75
2023-04-27T08:50:11.108Z,100641.97
2023-04-27T08:52:38.941Z,100644.06
2023-04-27T08:55:08.551Z,100603.91
2023-04-27T08:57:37.103Z,100635.53
2023-04-27T09:00:14.801Z,100601.03
2023-04-27T09:02:47.334Z,100634.75
2023-04-27T09:05:16.977Z,100596.41
2023-04-27T09:08:01.733Z,100599.75
2023-04-27T09:10:29.815Z,100652.66
2023-04-27T09:13:01.374Z,100566.47
2023-04-27T09:15:29.487Z,100632.81
2023-04-27T09:17:58.068Z,100604.31
2023-04-27T09:20:27.548Z,100618.88
2023-04-27T09:22:58.709Z,100636.66
2023-04-27T09:25:32.462Z,100637.88
2023-04-27T09:28:01.447Z,100642.03
2023-04-27T09:30:30.294Z,100650.19
2023-04-27T09:32:59.428Z,100644.09
2023-04-27T09:35:36.222Z,100643.91
2023-04-27T09:38:04.115Z,100651.81
2023-04-27T09:40:32.147Z,100662.34
2023-04-27T09:43:03.821Z,100639.69
2023-04-27T09:45:34.193Z,100662.19
2023-04-27T09:48:02.938Z,100602.72
2023-04-27T09:50:31.566Z,100611.84
2023-04-27T09:52:59.268Z,100645.47
2023-04-27T09:55:40.670Z,100592.91
2023-04-27T09:58:33.279Z,100670.16
2023-04-27T10:01:26.812Z,100629.13
2023-04-27T10:04:04.980Z,100661.66
2023-04-27T10:07:09.800Z,100662.16
2023-04-27T10:09:41.877Z,100620.91
2023-04-27T10:12:39.068Z,100662.94
2023-04-27T10:15:18.004Z,100621.28
2023-04-27T10:17:50.763Z,100615.31
2023-04-27T10:20:30.315Z,100651.84
2023-04-27T10:22:59.225Z,100654.09
2023-04-27T10:25:29.967Z,100634.22
2023-04-27T10:28:02.842Z,100618.03
2023-04-27T10:30:38.050Z,100658.34
2023-04-27T10:33:08.770Z,100604.88
2023-04-27T10:35:38.114Z,100654.47
2023-04-27T10:38:10.669Z,100656.09
2023-04-27T10:40:38.964Z,100661.41
2023-04-27T10:43:17.948Z,100625.00
2023-04-27T10:45:45.746Z,100644.91
2023-04-27T10:48:15.907Z,100622.75
2023-04-27T10:50:47.078Z,100605.97
2023-04-27T10:53:15.943Z,100593.94
2023-04-27T10:55:43.837Z,100600.06
2023-04-27T10:58:11.877Z,100620.78
2023-04-27T11:00:45.045Z,100608.97
2023-04-27T11:03:19.719Z,100641.41
2023-04-27T11:05:50.004Z,100648.66
2023-04-27T11:08:22.516Z,100539.22
2023-04-27T11:10:51.705Z,100631.06
2023-04-27T11:13:21.671Z,100641.44
2023-04-27T11:15:51.210Z,100640.31
2023-04-27T11:18:20.940Z,100603.28
2023-04-27T11:20:51.016Z,100629.84
2023-04-27T11:23:25.446Z,100622.94
2023-04-27T11:25:53.659Z,100589.31
2023-04-27T11:28:22.616Z,100595.66
2023-04-27T11:31:00.241Z,100591.00
2023-04-27T11:33:28.547Z,100598.00
2023-04-27T11:35:56.848Z,100617.50
2023-04-27T11:38:25.081Z,100559.81
2023-04-27T11:41:07.899Z,100592.69
2023-04-27T11:43:41.718Z,100548.94
2023-04-27T11:46:13.411Z,100566.03
2023-04-27T11:48:41.811Z,100578.63
2023-04-27T11:51:11.427Z,100576.91
2023-04-27T11:53:40.051Z,100600.81
2023-04-27T11:56:11.340Z,100532.34
2023-04-27T11:58:40.276Z,100597.41
2023-04-27T12:01:10.815Z,100594.03
2023-04-27T12:03:38.974Z,100567.59
2023-04-27T12:06:27.500Z,100576.16
2023-04-27T12:08:57.328Z,100581.00
2023-04-27T12:11:28.156Z,100573.75
2023-04-27T12:13:57.562Z,100540.31
2023-04-27T12:16:25.353Z,100579.59
2023-04-27T12:18:53.571Z,100559.56
2023-04-27T12:21:21.551Z,100567.97
2023-04-27T12:23:49.511Z,100573.47
2023-04-27T12:26:17.651Z,100534.53
2023-04-27T12:28:45.390Z,100580.56
2023-04-27T12:31:23.685Z,100550.19
2023-04-27T12:33:54.192Z,100547.44
2023-04-27T12:36:23.297Z,100549.09
2023-04-27T12:38:51.876Z,100557.00
2023-04-27T12:41:19.623Z,100543.09
2023-04-27T12:43:48.812Z,100527.75
2023-04-27T12:46:18.350Z,100510.84
2023-04-27T12:48:46.608Z,100567.66
2023-04-27T12:51:15.062Z,100568.94
2023-04-27T12:53:42.822Z,100557.66
2023-04-27T12:56:10.679Z,100530.06
2023-04-27T12:58:38.574Z,100560.88
2023-04-27T13:01:12.466Z,100539.75
2023-04-27T13:03:44.686Z,100519.91
2023-04-27T13:06:12.913Z,100510.06
2023-04-27T13:08:41.898Z,100519.75
2023-04-27T13:11:10.074Z,100523.94
2023-04-27T13:13:37.928Z,100514.44
2023-04-27T13:16:05.723Z,100552.38
2023-04-27T13:18:35.083Z,100549.63
2023-04-27T13:21:04.319Z,100505.28
2023-04-27T13:23:32.595Z,100525.28
2023-04-27T13:26:01.510Z,100544.28
2023-04-27T13:28:30.234Z,100516.06
2023-04-27T13:31:00.086Z,100541.25
2023-04-27T13:33:28.306Z,100522.38
2023-04-27T13:35:56.139Z,100529.69
2023-04-27T13:38:24.071Z,100508.03
2023-04-27T13:40:51.777Z,100527.75
2023-04-27T13:43:19.557Z,100478.50
2023-04-27T13:45:47.351Z,100479.81
2023-04-27T13:48:15.093Z,100474.16
2023-04-27T13:50:46.027Z,100519.19
2023-04-27T13:53:16.403Z,100464.47
2023-04-27T13:55:46.716Z,100300.97
2023-04-27T13:58:14.686Z,100275.94
2023-04-27T14:00:42.876Z,100282.56
2023-04-27T14:03:11.032Z,100508.53
2023-04-27T14:05:44.233Z,100305.63
2023-04-27T14:08:14.648Z,100348.34
2023-04-27T14:10:46.130Z,100511.16
2023-04-27T14:13:17.665Z,100363.00
2023-04-27T14:15:46.425Z,100329.94
2023-04-27T14:18:14.733Z,100225.03
2023-04-27T14:20:45.783Z,100364.16
2023-04-27T14:23:17.185Z,100257.59
2023-04-27T14:25:48.241Z,100412.56
2023-04-27T14:28:16.452Z,100443.69
2023-04-27T14:30:49.335Z,100419.50
2023-04-27T14:33:20.575Z,100407.25
2023-04-27T14:35:48.794Z,100272.78
2023-04-27T14:38:16.799Z,100290.19
2023-04-27T14:40:44.956Z,100438.88
2023-04-27T14:43:13.663Z,100454.03
2023-04-27T14:45:51.559Z,100482.63
2023-04-27T14:48:22.288Z,100406.44
2023-04-27T14:50:50.620Z,100339.19
2023-04-27T14:53:18.625Z,100322.91
2023-04-27T14:55:46.877Z,100318.06
2023-04-27T14:58:15.747Z,100406.28
2023-04-27T15:00:45.098Z,100284.22
2023-04-27T15:03:13.211Z,100210.41
2023-04-27T15:05:41.386Z,100353.41
2023-04-27T15:08:09.321Z,100314.84
2023-04-27T15:10:37.622Z,100401.31
2023-04-27T15:13:05.614Z,100412.41
2023-04-27T15:15:33.607Z,100249.63
2023-04-27T15:18:01.820Z,100391.78
2023-04-27T15:20:29.783Z,100484.69
2023-04-27T15:23:02.354Z,100366.28
2023-04-27T15:25:30.382Z,100320.19
2023-04-27T15:27:58.609Z,100245.59
2023-04-27T15:30:29.528Z,100272.84
2023-04-27T15:32:57.656Z,100320.88
2023-04-27T15:35:26.093Z,100283.00
2023-04-27T15:37:54.153Z,100186.16
2023-04-27T15:40:22.176Z,100455.22
2023-04-27T15:42:50.795Z,100394.72
2023-04-27T15:45:18.975Z,100324.72
2023-04-27T15:47:47.096Z,100221.72
2023-04-27T15:50:15.154Z,100322.38
2023-04-27T15:52:42.856Z,100355.56
2023-04-27T15:55:10.698Z,100408.94
2023-04-27T15:57:38.498Z,100392.63
2023-04-27T16:00:10.346Z,100381.16
2023-04-27T16:02:41.097Z,100375.41
2023-04-27T16:05:10.064Z,100389.91
2023-04-27T16:07:40.010Z,100428.59
2023-04-27T16:10:08.715Z,100420.03
2023-04-27T16:12:36.786Z,100406.00
2023-04-27T16:15:04.970Z,100419.88
2023-04-27T16:17:37.697Z,100411.97
2023-04-27T16:20:06.982Z,100411.97
2023-04-27T16:22:35.987Z,100325.53
2023-04-27T16:25:06.878Z,100334.75
2023-04-27T16:27:34.676Z,100366.84
2023-04-27T16:30:02.948Z,100197.09
2023-04-27T16:32:32.499Z,100408.28
2023-04-27T16:35:01.962Z,100409.06
2023-04-27T16:37:29.935Z,100399.41
2023-04-27T16:40:01.820Z,100379.22
2023-04-27T16:42:29.620Z,100404.53
2023-04-27T16:44:57.671Z,100371.00
2023-04-27T16:47:25.628Z,100414.88
2023-04-27T16:49:53.427Z,100349.59
2023-04-27T16:52:21.278Z,100364.59
2023-04-27T16:54:49.242Z,100384.09
2023-04-27T16:57:17.495Z,100387.78
2023-04-27T16:59:45.262Z,100431.47
2023-04-27T17:02:23.850Z,100402.59
2023-04-27T17:04:53.392Z,100388.13
2023-04-27T17:07:21.449Z,100420.34
2023-04-27T17:09:49.361Z,100421.50
2023-04-27T17:12:17.594Z,100375.69
2023-04-27T17:14:45.588Z,100385.84
2023-04-27T17:17:13.658Z,100392.44
2023-04-27T17:19:41.929Z,100185.47
2023-04-27T17:22:13.470Z,100323.41
2023-04-27T17:24:41.707Z,100279.56
2023-04-27T17:27:09.865Z,100422.75
2023-04-27T17:29:38.352Z,100240.75
2023-04-27T17:32:06.448Z,100271.81
2023-04-27T17:34:34.380Z,100269.66
2023-04-27T17:37:02.585Z,100209.72
2023-04-27T17:39:30.656Z,100439.03
2023-04-27T17:41:58.578Z,100431.78
2023-04-27T17:44:26.492Z,100460.47
2023-04-27T17:46:54.686Z,100465.78
2023-04-27T17:49:22.621Z,100453.50
2023-04-27T17:51:50.471Z,100484.50
2023-04-27T17:54:18.362Z,100464.19
2023-04-27T17:56:46.872Z,100491.91
2023-04-27T17:59:14.874Z,100486.25
2023-04-27T18:01:43.128Z,100477.34
2023-04-27T18:04:15.066Z,100475.88
2023-04-27T18:06:42.905Z,100492.63
2023-04-27T18:09:10.885Z,100511.03
2023-04-27T18:11:40.410Z,100385.44
2023-04-27T18:14:11.840Z,100276.72
2023-04-27T18:16:39.826Z,100416.56
2023-04-27T18:19:10.645Z,100529.53
2023-04-27T18:21:46.607Z,100514.84
2023-04-27T18:24:17.832Z,100505.78
2023-04-27T18:27:05.339Z,100358.22
2023-04-27T18:29:35.213Z,100566.28
2023-04-27T18:32:10.222Z,100416.75
2023-04-27T18:34:40.554Z,100326.88
2023-04-27T18:37:12.511Z,100426.53
2023-04-27T18:39:45.909Z,100387.66
2023-04-27T18:42:20.580Z,100452.25
2023-04-27T18:45:02.856Z,100339.91
2023-04-27T18:47:33.856Z,100432.69
2023-04-27T18:50:17.485Z,100471.59
2023-04-27T18:53:15.002Z,100526.88
2023-04-27T18:55:43.460Z,100346.25
2023-04-27T18:58:22.812Z,100388.03
2023-04-27T19:00:57.276Z,100519.88
2023-04-27T19:03:26.979Z,100425.06
2023-04-27T19:05:59.085Z,100593.06
2023-04-27T19:08:29.286Z,100562.53
2023-04-27T19:11:00.325Z,100375.84
2023-04-27T19:13:33.165Z,100365.75
2023-04-27T19:16:02.380Z,100391.31
2023-04-27T19:18:30.761Z,100373.75
2023-04-27T19:21:04.796Z,100428.94
2023-04-27T19:23:36.072Z,100560.56
2023-04-27T19:26:12.411Z,100633.75
2023-04-27T19:28:41.569Z,100490.53
2023-04-27T19:31:10.559Z,100512.03
2023-04-27T19:36:14.349Z,100468.06
2023-04-27T19:38:42.259Z,100627.84
2023-04-27T19:41:10.282Z,100504.41
2023-04-27T19:43:38.125Z,100446.34
2023-04-27T19:46:08.451Z,100465.50
2023-04-27T19:48:41.785Z,100463.53
2023-04-27T19:51:11.178Z,100502.28
2023-04-27T19:53:44.599Z,100582.69
2023-04-27T19:56:17.054Z,100423.13
2023-04-27T19:59:00.390Z,100515.19
2023-04-27T20:01:48.402Z,100528.75
2023-04-27T20:04:25.209Z,100501.78
2023-04-27T20:09:55.198Z,100482.88
2023-04-27T20:12:54.445Z,100528.72
2023-04-27T20:15:31.658Z,100412.94
2023-04-27T20:18:06.626Z,100541.63
2023-04-27T20:20:39.057Z,100462.44
2023-04-27T20:23:10.128Z,100555.75
2023-04-27T20:25:38.925Z,100687.81
2023-04-27T20:28:13.127Z,100438.16
2023-04-27T20:30:52.267Z,100479.41
2023-04-27T20:33:32.952Z,100526.28
2023-04-27T20:36:21.702Z,100446.13
2023-04-27T20:38:56.952Z,100561.47
2023-04-27T20:41:38.686Z,100568.31
2023-04-27T20:44:27.949Z,100521.16
2023-04-27T20:50:08.826Z,100697.56
2023-04-27T20:52:41.666Z,100541.53
2023-04-27T20:55:15.336Z,100451.66
2023-04-27T20:58:05.214Z,100563.47
2023-04-27T21:01:28.974Z,100700.13
2023-04-27T21:06:48.036Z,100435.03
2023-04-27T21:09:16.016Z,100678.41
2023-04-27T21:11:43.972Z,100594.31
2023-04-27T21:14:11.956Z,100438.06
2023-04-27T21:17:29.656Z,100561.16
2023-04-27T21:19:45.895Z,100480.25
2023-04-27T21:22:18.945Z,100426.88
2023-04-27T21:24:52.933Z,100705.78
2023-04-27T21:27:21.425Z,100487.50
2023-04-27T21:29:51.683Z,100468.16
2023-04-27T21:32:22.514Z,100418.50
2023-04-27T21:34:54.220Z,100439.72
2023-04-27T21:37:22.490Z,100566.63
2023-04-27T21:39:58.772Z,100558.81
2023-04-27T21:42:34.533Z,100602.38
2023-04-27T21:45:27.576Z,100457.31
2023-04-27T21:47:58.714Z,100617.81
2023-04-27T21:50:41.475Z,100534.28
2023-04-27T21:53:23.388Z,100692.88
2023-04-27T21:56:04.512Z,100464.59
2023-04-27T21:58:43.887Z,100406.59
2023-04-27T22:01:29.983Z,100678.34
2023-04-27T22:04:07.387Z,100571.22
2023-04-27T22:06:39.739Z,100475.00
2023-04-27T22:09:10.344Z,100410.63
2023-04-27T22:11:38.699Z,100698.88
2023-04-27T22:14:10.296Z,100603.25
2023-04-27T22:16:41.437Z,100529.09
2023-04-27T22:19:14.126Z,100566.81
2023-04-27T22:21:43.784Z,100523.75
2023-04-27T22:24:14.005Z,100471.44
2023-04-27T22:26:51.394Z,100470.63
2023-04-27T22:29:21.939Z,100557.19
2023-04-27T22:31:54.054Z,100516.31
2023-04-27T22:34:26.476Z,100539.44
2023-04-27T22:37:01.394Z,100545.88
2023-04-27T22:39:37.105Z,100449.22
2023-04-27T22:42:07.527Z,100544.38
2023-04-27T22:44:38.834Z,100457.13
2023-04-27T22:47:13.100Z,100414.06
2023-04-27T22:49:47.295Z,100565.66
2023-04-27T22:52:39.226Z,100659.69
2023-04-27T22:55:20.616Z,100483.91
2023-04-27T22:58:07.397Z,100590.66
2023-04-27T23:00:44.016Z,100460.97
2023-04-27T23:03:41.158Z,100717.44
2023-04-27T23:06:14.730Z,100458.94
2023-04-27T23:08:47.284Z,100450.53
2023-04-27T23:11:16.863Z,100566.47
2023-04-27T23:13:54.905Z,100610.59
2023-04-27T23:16:27.626Z,100473.38
2023-04-27T23:18:56.016Z,100545.69
2023-04-27T23:21:25.637Z,100722.41
2023-04-27T23:23:56.628Z,100433.66
2023-04-27T23:26:24.747Z,100464.72
2023-04-27T23:28:52.786Z,100614.94
2023-04-27T23:31:21.124Z,100583.41
2023-04-27T23:33:49.401Z,100551.28
2023-04-27T23:36:17.646Z,100681.72
2023-04-27T23:38:51.835Z,100612.06
2023-04-27T23:41:21.201Z,100707.63
2023-04-27T23:43:51.095Z,100457.34
2023-04-27T23:46:19.391Z,100710.97
2023-04-27T23:48:50.318Z,100538.38
2023-04-27T23:51:18.243Z,100555.69
2023-04-27T23:53:47.649Z,100422.97
2023-04-27T23:56:19.835Z,100424.59
2023-04-27T23:58:47.833Z,100637.28
